Weather at International Crossroads Heliport

Public forecast

Using degrees Fahrenheit for public forecast. Weather courtesy of forecast.io.

Closest aviation weather report (METAR) to International Crossroads Heliport

Closest report is Essex County Airport, 14.7 nm (27.3 km) SSW. Retrieved 2022/01/22 20:53 UTC (23 minutes ago):

KCDW 222053Z 00000KT 10SM CLR M01/M14 A3023 RMK AO2 SLP244 T10061144 56030

Closest aviation forecast (TAF) to International Crossroads Heliport

Closest forecast is Teterboro Airport, 16.0 nm (29.6 km) SSE. Retrieved 2022/01/22 18:36 UTC (3 hours ago):

TAF KTEB 221733Z 2218/2324 VRB02KT P6SM SCT250 FM231300 26009KT P6SM SCT050 SCT150 BKN250